| time (UTC) | temp F | wind direction | speed MPH | gust MPH | rain 1hr in | rain 24hr in | rain mn in | humidity % | barometer mb |
| 20260507141509 | 85 | 146 | 17.0 | 24.0 | 0.00 | 0.00 | 0.00 | 73 | 1012.4 |
| 20260507140127 | 84 | 111 | 15.0 | 24.0 | 0.00 | 0.00 | 0.00 | 75 | 1012.4 |
| 20260507134501 | 82 | 136 | 12.0 | 22.0 | 0.00 | 0.00 | 0.00 | 79 | 1012.3 |
| 20260507133058 | 82 | 142 | 7.0 | 17.0 | 0.00 | 0.00 | 0.00 | 81 | 1012.2 |
| 20260507131604 | 80 | 138 | 12.0 | 20.0 | 0.00 | 0.00 | 0.00 | 84 | 1012.2 |
| 20260507130103 | 78 | 128 | 9.0 | 15.0 | 0.00 | 0.00 | 0.00 | 86 | 1012.1 |
| 20260507124603 | 77 | 124 | 9.0 | 17.0 | 0.00 | 0.00 | 0.00 | 87 | 1011.9 |
| 20260507123054 | 76 | 138 | 8.0 | 13.0 | 0.00 | 0.00 | 0.00 | 87 | 1011.6 |
| 20260507121543 | 76 | 125 | 7.0 | 13.0 | 0.00 | 0.00 | 0.00 | 87 | 1011.7 |
| 20260507120035 | 76 | 105 | 6.0 | 14.0 | 0.00 | 0.00 | 0.00 | 87 | 1011.4 |
| 20260507114530 | 76 | 123 | 7.0 | 10.0 | 0.00 | 0.00 | 0.00 | 87 | 1011.2 |
| 20260507113033 | 76 | 99 | 6.0 | 12.0 | 0.00 | 0.00 | 0.00 | 87 | 1011.2 |
| 20260507111526 | 76 | 71 | 5.0 | 10.0 | 0.00 | 0.00 | 0.00 | 87 | 1011.1 |
| 20260507110028 | 76 | 119 | 6.0 | 10.0 | 0.00 | 0.00 | 0.00 | 86 | 1011.0 |
| 20260507104625 | 76 | 123 | 6.0 | 12.0 | 0.00 | 0.00 | 0.00 | 86 | 1010.9 |
| 20260507103021 | 76 | 107 | 5.0 | 13.0 | 0.00 | 0.00 | 0.00 | 86 | 1010.8 |
| 20260507101528 | 77 | 125 | 9.0 | 14.0 | 0.00 | 0.00 | 0.00 | 86 | 1010.6 |
| 20260507100025 | 77 | 134 | 8.0 | 14.0 | 0.00 | 0.00 | 0.00 | 85 | 1010.4 |
| 20260507094521 | 77 | 130 | 8.0 | 14.0 | 0.00 | 0.00 | 0.00 | 85 | 1010.4 |
| 20260507093032 | 77 | 132 | 9.0 | 14.0 | 0.00 | 0.00 | 0.00 | 84 | 1010.4 |
| 20260507091514 | 77 | 137 | 9.0 | 17.0 | 0.00 | 0.00 | 0.00 | 84 | 1010.6 |
| 20260507090019 | 78 | 131 | 9.0 | 13.0 | 0.00 | 0.00 | 0.00 | 83 | 1010.5 |
| 20260507084511 | 78 | 123 | 9.0 | 13.0 | 0.00 | 0.00 | 0.00 | 83 | 1010.5 |
| 20260507083015 | 78 | 132 | 9.0 | 16.0 | 0.00 | 0.00 | 0.00 | 83 | 1010.7 |
| 20260507081506 | 78 | 132 | 11.0 | 17.0 | 0.00 | 0.00 | 0.00 | 82 | 1010.8 |
| 20260507080136 | 78 | 137 | 10.0 | 15.0 | 0.00 | 0.00 | 0.00 | 82 | 1010.8 |
| 20260507074505 | 79 | 138 | 8.0 | 16.0 | 0.00 | 0.00 | 0.00 | 81 | 1011.1 |
| 20260507073111 | 79 | 125 | 11.0 | 15.0 | 0.00 | 0.00 | 0.00 | 80 | 1011.4 |
| 20260507071656 | 79 | 135 | 12.0 | 16.0 | 0.00 | 0.00 | 0.00 | 80 | 1011.3 |
| 20260507070054 | 80 | 103 | 8.0 | 14.0 | 0.00 | 0.00 | 0.00 | 79 | 1011.3 |
| 20260507064555 | 80 | 105 | 10.0 | 16.0 | 0.00 | 0.00 | 0.00 | 79 | 1011.7 |
| 20260507063054 | 80 | 125 | 9.0 | 16.0 | 0.00 | 0.00 | 0.00 | 78 | 1011.7 |
| 20260507061548 | 81 | 141 | 9.0 | 19.0 | 0.00 | 0.00 | 0.00 | 78 | 1011.6 |
| 20260507060046 | 81 | 134 | 13.0 | 21.0 | 0.00 | 0.00 | 0.00 | 77 | 1011.6 |
| 20260507054552 | 81 | 119 | 10.0 | 20.0 | 0.00 | 0.00 | 0.00 | 76 | 1011.8 |
| 20260507053047 | 82 | 129 | 16.0 | 23.0 | 0.00 | 0.00 | 0.00 | 75 | 1011.8 |
| 20260507051544 | 82 | 130 | 17.0 | 24.0 | 0.00 | 0.00 | 0.00 | 74 | 1011.8 |
| 20260507050043 | 83 | 117 | 16.0 | 24.0 | 0.00 | 0.00 | 0.00 | 72 | 1011.8 |
| 20260507044543 | 83 | 115 | 13.0 | 19.0 | 0.00 | 0.00 | 0.00 | 71 | 1011.9 |
| 20260507043042 | 84 | 112 | 11.0 | 20.0 | 0.00 | 0.00 | 0.00 | 71 | 1011.9 |
| 20260507041541 | 85 | 113 | 11.0 | 21.0 | 0.00 | 0.00 | 0.00 | 70 | 1011.8 |
| 20260507040048 | 85 | 142 | 13.0 | 25.0 | 0.00 | 0.00 | 0.00 | 69 | 1011.8 |
| 20260507034553 | 86 | 113 | 14.0 | 24.0 | 0.00 | 0.00 | 0.00 | 67 | 1011.5 |
| 20260507033042 | 86 | 112 | 13.0 | 22.0 | 0.00 | 0.00 | 0.00 | 67 | 1011.3 |
| 20260507031538 | 87 | 140 | 15.0 | 21.0 | 0.00 | 0.00 | 0.00 | 66 | 1011.1 |
| 20260507030039 | 87 | 131 | 17.0 | 26.0 | 0.00 | 0.00 | 0.00 | 65 | 1010.8 |
| 20260507024538 | 88 | 121 | 16.0 | 24.0 | 0.00 | 0.00 | 0.00 | 63 | 1010.6 |
| 20260507023037 | 89 | 107 | 14.0 | 27.0 | 0.00 | 0.00 | 0.00 | 61 | 1010.5 |
| 20260507021537 | 89 | 115 | 14.0 | 27.0 | 0.00 | 0.00 | 0.00 | 59 | 1010.3 |
| 20260507020036 | 90 | 132 | 17.0 | 26.0 | 0.00 | 0.00 | 0.00 | 58 | 1010.1 |
| 20260507014536 | 91 | 123 | 13.0 | 27.0 | 0.00 | 0.00 | 0.00 | 56 | 1009.8 |
| 20260507013038 | 92 | 121 | 11.0 | 19.0 | 0.00 | 0.00 | 0.00 | 55 | 1009.4 |
| 20260507011539 | 93 | 126 | 17.0 | 23.0 | 0.00 | 0.00 | 0.00 | 53 | 1009.3 |
| 20260507010034 | 94 | 92 | 14.0 | 22.0 | 0.00 | 0.00 | 0.00 | 52 | 1008.9 |
| 20260507004533 | 95 | 126 | 14.0 | 24.0 | 0.00 | 0.00 | 0.00 | 51 | 1008.7 |
| 20260507003032 | 96 | 99 | 15.0 | 23.0 | 0.00 | 0.00 | 0.00 | 49 | 1008.5 |
| 20260507001543 | 97 | 118 | 13.0 | 21.0 | 0.00 | 0.00 | 0.00 | 46 | 1008.3 |
| 20260507000131 | 98 | 146 | 12.0 | 19.0 | 0.00 | 0.00 | 0.00 | 44 | 1008.3 |
| 20260506234541 | 98 | 132 | 12.0 | 24.0 | 0.00 | 0.00 | 0.00 | 42 | 1008.1 |
| 20260506233030 | 99 | 144 | 14.0 | 21.0 | 0.00 | 0.00 | 0.00 | 42 | 1008.0 |
| 20260506231534 | 99 | 159 | 14.0 | 21.0 | 0.00 | 0.00 | 0.00 | 40 | 1007.9 |
| 20260506230029 | 100 | 89 | 13.0 | 18.0 | 0.00 | 0.00 | 0.00 | 41 | 1007.6 |
| 20260506224531 | 101 | 150 | 14.0 | 22.0 | 0.00 | 0.00 | 0.00 | 40 | 1007.4 |
| 20260506223028 | 101 | 129 | 13.0 | 20.0 | 0.00 | 0.00 | 0.00 | 40 | 1007.3 |
| 20260506221527 | 101 | 163 | 13.0 | 19.0 | 0.00 | 0.00 | 0.00 | 39 | 1007.3 |
| 20260506220026 | 101 | 162 | 13.0 | 21.0 | 0.00 | 0.00 | 0.00 | 37 | 1007.4 |
| 20260506214525 | 102 | 203 | 13.0 | 21.0 | 0.00 | 0.00 | 0.00 | 39 | 1007.4 |
| 20260506213024 | 102 | 119 | 14.0 | 23.0 | 0.00 | 0.00 | 0.00 | 38 | 1007.6 |
| 20260506211522 | 102 | 140 | 12.0 | 21.0 | 0.00 | 0.00 | 0.00 | 38 | 1007.7 |
| 20260506210023 | 102 | 126 | 12.0 | 21.0 | 0.00 | 0.00 | 0.00 | 39 | 1007.7 |
| 20260506204520 | 102 | 158 | 11.0 | 21.0 | 0.00 | 0.00 | 0.00 | 40 | 1007.7 |
| 20260506203020 | 102 | 137 | 16.0 | 23.0 | 0.00 | 0.00 | 0.00 | 39 | 1008.0 |
| 20260506201521 | 102 | 143 | 15.0 | 26.0 | 0.00 | 0.00 | 0.00 | 38 | 1008.3 |
| 20260506200018 | 102 | 133 | 11.0 | 20.0 | 0.00 | 0.00 | 0.00 | 39 | 1008.3 |
| 20260506194513 | 102 | 159 | 15.0 | 23.0 | 0.00 | 0.00 | 0.00 | 38 | 1008.7 |
| 20260506193010 | 102 | 140 | 13.0 | 22.0 | 0.00 | 0.00 | 0.00 | 39 | 1008.7 |
| 20260506191510 | 101 | 140 | 12.0 | 22.0 | 0.00 | 0.00 | 0.00 | 41 | 1009.2 |
| 20260506190003 | 100 | 146 | 11.0 | 25.0 | 0.00 | 0.00 | 0.00 | 41 | 1009.5 |
| 20260506184602 | 101 | 178 | 10.0 | 22.0 | 0.00 | 0.00 | 0.00 | 41 | 1009.7 |
| 20260506183105 | 99 | 144 | 14.0 | 24.0 | 0.00 | 0.00 | 0.00 | 41 | 1010.1 |
| 20260506181556 | 100 | 140 | 13.0 | 22.0 | 0.00 | 0.00 | 0.00 | 43 | 1010.3 |
| 20260506180048 | 99 | 146 | 11.0 | 21.0 | 0.00 | 0.00 | 0.00 | 43 | 1010.5 |
| 20260506173051 | 97 | 136 | 11.0 | 19.0 | 0.00 | 0.00 | 0.00 | 47 | 1010.9 |
| 20260506171538 | 97 | 155 | 10.0 | 20.0 | 0.00 | 0.00 | 0.00 | 48 | 1011.1 |
| 20260506170035 | 96 | 120 | 13.0 | 22.0 | 0.00 | 0.00 | 0.00 | 50 | 1011.2 |
| 20260506164531 | 96 | 126 | 13.0 | 25.0 | 0.00 | 0.00 | 0.00 | 50 | 1011.4 |
| 20260506163044 | 94 | 130 | 15.0 | 25.0 | 0.00 | 0.00 | 0.00 | 52 | 1011.5 |
| 20260506161526 | 93 | 128 | 16.0 | 26.0 | 0.00 | 0.00 | 0.00 | 54 | 1011.7 |
| 20260506160019 | 92 | 144 | 18.0 | 24.0 | 0.00 | 0.00 | 0.00 | 55 | 1011.9 |
| 20260506154528 | 91 | 140 | 14.0 | 25.0 | 0.00 | 0.00 | 0.00 | 58 | 1012.0 |
| 20260506153011 | 91 | 195 | 15.0 | 26.0 | 0.00 | 0.00 | 0.00 | 60 | 1012.1 |
| 20260506151511 | 89 | 159 | 13.0 | 24.0 | 0.00 | 0.00 | 0.00 | 65 | 1012.1 |
| 20260506150006 | 88 | 140 | 15.0 | 25.0 | 0.00 | 0.00 | 0.00 | 67 | 1012.2 |
| 20260506144559 | 87 | 151 | 14.0 | 27.0 | 0.00 | 0.00 | 0.00 | 70 | 1012.3 |
| 20260506143055 | 86 | 117 | 18.0 | 27.0 | 0.00 | 0.00 | 0.00 | 72 | 1012.2 |